createdAt,value
2023-08-30T00:11:07.644Z,10.87
2023-08-30T00:26:09.521Z,10.80
2023-08-30T00:41:11.457Z,10.80
2023-08-30T00:56:13.209Z,10.82
2023-08-30T01:11:14.951Z,10.77
2023-08-30T01:26:16.582Z,10.74
2023-08-30T01:41:18.258Z,10.63
2023-08-30T01:56:19.927Z,10.45
2023-08-30T02:11:21.597Z,10.27
2023-08-30T02:26:23.263Z,10.14
2023-08-30T02:41:24.920Z,10.27
2023-08-30T02:56:26.759Z,10.29
2023-08-30T03:11:28.433Z,10.56
2023-08-30T03:26:31.039Z,10.58
2023-08-30T03:41:32.681Z,10.73
2023-08-30T03:56:36.290Z,10.80
2023-08-30T04:11:37.969Z,10.81
2023-08-30T04:26:40.283Z,10.83
2023-08-30T04:41:42.009Z,10.89
2023-08-30T04:56:43.800Z,10.91
2023-08-30T05:11:46.267Z,10.98
2023-08-30T05:26:48.296Z,11.07
2023-08-30T05:41:51.265Z,11.40
2023-08-30T05:56:52.934Z,11.53
2023-08-30T06:11:54.705Z,11.73
2023-08-30T06:26:56.517Z,12.13
2023-08-30T06:41:58.240Z,12.51
2023-08-30T06:57:02.920Z,12.84
2023-08-30T07:12:04.573Z,13.06
2023-08-30T07:27:06.650Z,12.76
2023-08-30T07:42:08.342Z,12.98
2023-08-30T07:57:10.004Z,13.93
2023-08-30T08:12:11.629Z,14.38
2023-08-30T08:27:13.290Z,14.57
2023-08-30T08:42:16.550Z,15.44
2023-08-30T08:57:19.100Z,16.18
2023-08-30T09:12:20.957Z,17.14
2023-08-30T09:27:22.717Z,18.35
2023-08-30T09:42:24.437Z,18.45
2023-08-30T09:57:26.197Z,19.03
2023-08-30T10:12:27.984Z,19.92
2023-08-30T10:27:29.622Z,20.05
2023-08-30T10:42:31.308Z,20.73
2023-08-30T10:57:38.038Z,20.67
2023-08-30T11:12:39.686Z,19.82
2023-08-30T11:27:41.377Z,21.09
2023-08-30T11:42:43.074Z,21.18
2023-08-30T11:57:44.759Z,20.68
2023-08-30T12:12:46.799Z,21.74
2023-08-30T12:27:48.522Z,21.44
2023-08-30T12:42:50.224Z,20.55
2023-08-30T12:57:51.845Z,20.75
2023-08-30T13:12:53.579Z,19.04
2023-08-30T13:27:55.282Z,18.23
2023-08-30T13:42:56.940Z,17.07
2023-08-30T13:57:58.711Z,16.00
2023-08-30T14:13:00.362Z,16.71
2023-08-30T14:28:02.249Z,18.27
2023-08-30T14:43:03.994Z,18.43
2023-08-30T14:58:05.746Z,18.40
2023-08-30T15:13:08.118Z,17.72
2023-08-30T15:28:09.790Z,16.89
2023-08-30T15:43:11.864Z,17.21
2023-08-30T15:58:13.823Z,16.52
2023-08-30T16:13:18.284Z,16.08
2023-08-30T16:28:19.911Z,16.38
2023-08-30T16:43:21.620Z,16.37
2023-08-30T16:58:24.108Z,15.90
2023-08-30T17:13:26.038Z,15.61
2023-08-30T17:28:27.820Z,15.38
2023-08-30T17:43:29.611Z,15.00
2023-08-30T17:58:31.494Z,14.63
2023-08-30T18:13:33.203Z,14.30
2023-08-30T18:28:34.854Z,13.94
2023-08-30T18:43:36.513Z,13.70
2023-08-30T18:58:38.299Z,13.65
2023-08-30T19:13:40.569Z,13.74
2023-08-30T19:28:42.243Z,13.85
2023-08-30T19:43:43.880Z,13.73
2023-08-30T19:58:45.576Z,13.02
2023-08-30T20:13:47.238Z,12.90
2023-08-30T20:28:50.753Z,13.03
2023-08-30T20:43:52.778Z,13.10
2023-08-30T20:58:58.164Z,12.98
2023-08-30T21:14:00.733Z,12.67
2023-08-30T21:29:02.388Z,12.52
2023-08-30T21:44:04.015Z,12.40
2023-08-30T21:59:05.785Z,12.37
2023-08-30T22:14:07.817Z,12.44
2023-08-30T22:29:09.545Z,12.46
2023-08-30T22:44:11.572Z,12.46
2023-08-30T22:59:13.228Z,12.47
2023-08-30T23:14:15.041Z,12.44
2023-08-30T23:29:17.489Z,12.35
2023-08-30T23:44:19.524Z,12.30
2023-08-30T23:59:21.151Z,12.34
